Woodbine, Illinois
Current Conditions -  °F | °C
As of 2:55 PM on Thursday 18 Dec 2014 (Local Time) from KSFY Reporting Station
Scattered Clouds Scattered Clouds  
Wind Chill: 26°   Ceiling: Unl
Heat Index: 26°   Visibility: 10mi
Dew Point: 18°   Wind: 3mph
Humidity: 74%   Direction: 330°NNW
Pressure: 30.25"   Gusts: NA
Location:  42.3424°N, 90.0324°W
Report Text: KSFY 182055Z AUTO 33003KT 10SM SCT017 M04/M08 A3025 RMK AO2 T10361077
Loading
Personal Weather Stations






























Interactive Weather Map New forecast layout! Learn more

10-Day Weather Forecast

Advertisements
Track Severe Weather on mobile